sensor_id;sensor_type;location;lat;lon;timestamp;P1;durP1;ratioP1;P2;durP2;ratioP2
59824;SDS011;45703;50.898;6.054;2022-12-18T00:01:47;25.30;;;12.63;;
59824;SDS011;45703;50.898;6.054;2022-12-18T00:04:23;22.90;;;13.18;;
59824;SDS011;45703;50.898;6.054;2022-12-18T00:06:49;22.38;;;13.30;;
59824;SDS011;45703;50.898;6.054;2022-12-18T00:09:15;25.83;;;13.02;;
59824;SDS011;45703;50.898;6.054;2022-12-18T00:11:41;24.38;;;12.57;;
59824;SDS011;45703;50.898;6.054;2022-12-18T00:14:06;21.05;;;10.95;;
59824;SDS011;45703;50.898;6.054;2022-12-18T00:16:32;23.40;;;12.32;;
59824;SDS011;45703;50.898;6.054;2022-12-18T00:19:00;20.27;;;10.60;;
59824;SDS011;45703;50.898;6.054;2022-12-18T00:21:26;22.15;;;12.32;;
59824;SDS011;45703;50.898;6.054;2022-12-18T00:23:52;23.73;;;13.02;;
59824;SDS011;45703;50.898;6.054;2022-12-18T00:26:25;20.33;;;10.18;;
59824;SDS011;45703;50.898;6.054;2022-12-18T00:28:53;19.48;;;11.00;;
59824;SDS011;45703;50.898;6.054;2022-12-18T00:31:20;22.35;;;10.77;;
59824;SDS011;45703;50.898;6.054;2022-12-18T00:33:48;21.92;;;10.65;;
59824;SDS011;45703;50.898;6.054;2022-12-18T00:36:15;21.95;;;10.35;;
59824;SDS011;45703;50.898;6.054;2022-12-18T00:38:42;18.35;;;10.15;;
59824;SDS011;45703;50.898;6.054;2022-12-18T00:41:09;21.45;;;10.40;;
59824;SDS011;45703;50.898;6.054;2022-12-18T00:43:36;23.38;;;11.57;;
59824;SDS011;45703;50.898;6.054;2022-12-18T00:46:01;20.48;;;10.20;;
59824;SDS011;45703;50.898;6.054;2022-12-18T00:48:27;20.95;;;10.52;;
59824;SDS011;45703;50.898;6.054;2022-12-18T00:50:53;21.65;;;11.38;;
59824;SDS011;45703;50.898;6.054;2022-12-18T00:53:18;19.90;;;9.75;;
59824;SDS011;45703;50.898;6.054;2022-12-18T00:55:44;20.52;;;10.52;;
59824;SDS011;45703;50.898;6.054;2022-12-18T00:58:14;20.15;;;10.63;;
59824;SDS011;45703;50.898;6.054;2022-12-18T01:00:41;19.27;;;9.98;;
59824;SDS011;45703;50.898;6.054;2022-12-18T01:03:07;19.40;;;9.90;;
59824;SDS011;45703;50.898;6.054;2022-12-18T01:05:32;18.05;;;8.80;;
59824;SDS011;45703;50.898;6.054;2022-12-18T01:07:58;16.45;;;8.57;;
59824;SDS011;45703;50.898;6.054;2022-12-18T01:10:23;22.25;;;10.60;;
59824;SDS011;45703;50.898;6.054;2022-12-18T01:12:50;20.77;;;10.27;;
59824;SDS011;45703;50.898;6.054;2022-12-18T01:15:15;17.73;;;10.32;;
59824;SDS011;45703;50.898;6.054;2022-12-18T01:17:41;19.27;;;9.95;;
59824;SDS011;45703;50.898;6.054;2022-12-18T01:20:07;22.08;;;10.32;;
59824;SDS011;45703;50.898;6.054;2022-12-18T01:22:34;20.88;;;10.02;;
59824;SDS011;45703;50.898;6.054;2022-12-18T01:25:00;17.50;;;9.88;;
59824;SDS011;45703;50.898;6.054;2022-12-18T01:27:25;19.42;;;9.23;;
59824;SDS011;45703;50.898;6.054;2022-12-18T01:29:51;16.70;;;9.10;;
59824;SDS011;45703;50.898;6.054;2022-12-18T01:32:17;20.17;;;9.63;;
59824;SDS011;45703;50.898;6.054;2022-12-18T01:34:42;19.05;;;8.77;;
59824;SDS011;45703;50.898;6.054;2022-12-18T01:37:07;16.52;;;9.23;;
59824;SDS011;45703;50.898;6.054;2022-12-18T01:39:33;17.80;;;8.52;;
59824;SDS011;45703;50.898;6.054;2022-12-18T01:41:59;18.80;;;9.25;;
59824;SDS011;45703;50.898;6.054;2022-12-18T01:49:51;18.23;;;9.48;;
59824;SDS011;45703;50.898;6.054;2022-12-18T01:52:18;16.90;;;8.32;;
59824;SDS011;45703;50.898;6.054;2022-12-18T01:54:45;17.88;;;9.38;;
59824;SDS011;45703;50.898;6.054;2022-12-18T01:57:12;15.98;;;7.88;;
59824;SDS011;45703;50.898;6.054;2022-12-18T01:59:38;15.32;;;7.35;;
59824;SDS011;45703;50.898;6.054;2022-12-18T02:02:06;17.40;;;9.45;;
59824;SDS011;45703;50.898;6.054;2022-12-18T02:04:32;16.55;;;8.40;;
59824;SDS011;45703;50.898;6.054;2022-12-18T02:09:55;14.52;;;8.30;;
59824;SDS011;45703;50.898;6.054;2022-12-18T02:12:42;21.30;;;12.02;;
59824;SDS011;45703;50.898;6.054;2022-12-18T02:18:09;17.40;;;9.20;;
59824;SDS011;45703;50.898;6.054;2022-12-18T02:23:21;16.63;;;8.13;;
59824;SDS011;45703;50.898;6.054;2022-12-18T02:28:41;18.00;;;7.70;;
59824;SDS011;45703;50.898;6.054;2022-12-18T02:31:11;14.48;;;7.55;;
59824;SDS011;45703;50.898;6.054;2022-12-18T02:33:42;16.08;;;9.32;;
59824;SDS011;45703;50.898;6.054;2022-12-18T02:36:10;19.00;;;9.27;;
59824;SDS011;45703;50.898;6.054;2022-12-18T02:38:37;15.23;;;8.50;;
59824;SDS011;45703;50.898;6.054;2022-12-18T02:41:04;15.50;;;8.18;;
59824;SDS011;45703;50.898;6.054;2022-12-18T02:43:31;20.70;;;10.18;;
59824;SDS011;45703;50.898;6.054;2022-12-18T02:45:57;16.17;;;8.13;;
59824;SDS011;45703;50.898;6.054;2022-12-18T02:48:27;12.20;;;7.63;;
59824;SDS011;45703;50.898;6.054;2022-12-18T02:53:43;14.20;;;6.82;;
59824;SDS011;45703;50.898;6.054;2022-12-18T02:56:25;14.88;;;7.68;;
59824;SDS011;45703;50.898;6.054;2022-12-18T02:59:06;14.48;;;6.82;;
59824;SDS011;45703;50.898;6.054;2022-12-18T03:06:54;11.98;;;7.53;;
59824;SDS011;45703;50.898;6.054;2022-12-18T03:09:28;15.38;;;7.57;;
59824;SDS011;45703;50.898;6.054;2022-12-18T03:12:06;15.43;;;6.65;;
59824;SDS011;45703;50.898;6.054;2022-12-18T03:17:45;11.35;;;6.45;;
59824;SDS011;45703;50.898;6.054;2022-12-18T03:20:15;14.23;;;6.72;;
59824;SDS011;45703;50.898;6.054;2022-12-18T03:22:44;14.73;;;6.35;;
59824;SDS011;45703;50.898;6.054;2022-12-18T03:25:14;19.73;;;8.05;;
59824;SDS011;45703;50.898;6.054;2022-12-18T03:27:42;14.18;;;6.65;;
59824;SDS011;45703;50.898;6.054;2022-12-18T03:35:20;15.05;;;6.88;;
59824;SDS011;45703;50.898;6.054;2022-12-18T03:37:49;16.30;;;6.57;;
59824;SDS011;45703;50.898;6.054;2022-12-18T03:40:14;18.67;;;7.63;;
59824;SDS011;45703;50.898;6.054;2022-12-18T03:53:15;20.02;;;8.38;;
59824;SDS011;45703;50.898;6.054;2022-12-18T03:55:49;21.42;;;9.65;;
59824;SDS011;45703;50.898;6.054;2022-12-18T03:58:18;18.73;;;8.77;;
59824;SDS011;45703;50.898;6.054;2022-12-18T04:00:48;19.20;;;9.07;;
59824;SDS011;45703;50.898;6.054;2022-12-18T04:03:17;15.68;;;7.53;;
59824;SDS011;45703;50.898;6.054;2022-12-18T04:05:46;16.52;;;6.55;;
59824;SDS011;45703;50.898;6.054;2022-12-18T04:08:15;16.65;;;7.53;;
59824;SDS011;45703;50.898;6.054;2022-12-18T04:10:41;14.82;;;5.72;;
59824;SDS011;45703;50.898;6.054;2022-12-18T04:13:06;15.88;;;6.88;;
59824;SDS011;45703;50.898;6.054;2022-12-18T04:15:35;18.27;;;7.93;;
59824;SDS011;45703;50.898;6.054;2022-12-18T04:18:02;12.88;;;6.45;;
59824;SDS011;45703;50.898;6.054;2022-12-18T04:20:28;15.77;;;6.50;;
59824;SDS011;45703;50.898;6.054;2022-12-18T04:22:53;13.70;;;6.45;;
59824;SDS011;45703;50.898;6.054;2022-12-18T04:25:19;15.52;;;6.28;;
59824;SDS011;45703;50.898;6.054;2022-12-18T04:27:44;18.50;;;7.53;;
59824;SDS011;45703;50.898;6.054;2022-12-18T04:30:10;13.35;;;6.50;;
59824;SDS011;45703;50.898;6.054;2022-12-18T04:32:35;15.43;;;6.72;;
59824;SDS011;45703;50.898;6.054;2022-12-18T04:35:01;21.10;;;8.55;;
59824;SDS011;45703;50.898;6.054;2022-12-18T04:37:27;15.80;;;7.53;;
59824;SDS011;45703;50.898;6.054;2022-12-18T04:39:52;18.13;;;7.97;;
59824;SDS011;45703;50.898;6.054;2022-12-18T04:42:17;15.27;;;7.10;;
59824;SDS011;45703;50.898;6.054;2022-12-18T04:44:43;15.23;;;6.45;;
59824;SDS011;45703;50.898;6.054;2022-12-18T04:47:08;17.13;;;7.55;;
59824;SDS011;45703;50.898;6.054;2022-12-18T04:49:33;13.35;;;6.80;;
59824;SDS011;45703;50.898;6.054;2022-12-18T04:51:59;18.33;;;6.38;;
59824;SDS011;45703;50.898;6.054;2022-12-18T04:54:24;18.20;;;7.80;;
59824;SDS011;45703;50.898;6.054;2022-12-18T04:56:50;15.45;;;7.03;;
59824;SDS011;45703;50.898;6.054;2022-12-18T04:59:15;19.50;;;6.82;;
59824;SDS011;45703;50.898;6.054;2022-12-18T05:01:41;17.70;;;8.45;;
59824;SDS011;45703;50.898;6.054;2022-12-18T05:04:06;16.88;;;7.45;;
59824;SDS011;45703;50.898;6.054;2022-12-18T05:06:31;14.85;;;6.88;;
59824;SDS011;45703;50.898;6.054;2022-12-18T05:08:57;15.85;;;7.47;;
59824;SDS011;45703;50.898;6.054;2022-12-18T05:11:22;15.70;;;6.97;;
59824;SDS011;45703;50.898;6.054;2022-12-18T05:13:48;17.60;;;7.25;;
59824;SDS011;45703;50.898;6.054;2022-12-18T05:16:14;14.85;;;7.53;;
59824;SDS011;45703;50.898;6.054;2022-12-18T05:18:39;15.80;;;7.05;;
59824;SDS011;45703;50.898;6.054;2022-12-18T05:21:05;19.95;;;7.88;;
59824;SDS011;45703;50.898;6.054;2022-12-18T05:23:30;16.33;;;7.47;;
59824;SDS011;45703;50.898;6.054;2022-12-18T05:25:57;16.73;;;6.50;;
59824;SDS011;45703;50.898;6.054;2022-12-18T05:28:24;20.13;;;8.05;;
59824;SDS011;45703;50.898;6.054;2022-12-18T05:30:51;14.95;;;6.78;;
59824;SDS011;45703;50.898;6.054;2022-12-18T05:33:18;14.30;;;6.13;;
59824;SDS011;45703;50.898;6.054;2022-12-18T05:35:49;13.05;;;6.40;;
59824;SDS011;45703;50.898;6.054;2022-12-18T05:38:16;15.70;;;7.22;;
59824;SDS011;45703;50.898;6.054;2022-12-18T05:40:42;18.00;;;7.68;;
59824;SDS011;45703;50.898;6.054;2022-12-18T05:43:08;16.52;;;7.00;;
59824;SDS011;45703;50.898;6.054;2022-12-18T05:45:36;18.75;;;8.32;;
59824;SDS011;45703;50.898;6.054;2022-12-18T05:48:03;20.92;;;9.85;;
59824;SDS011;45703;50.898;6.054;2022-12-18T05:50:28;19.08;;;9.88;;
59824;SDS011;45703;50.898;6.054;2022-12-18T05:52:54;18.13;;;8.30;;
59824;SDS011;45703;50.898;6.054;2022-12-18T05:55:19;13.90;;;7.40;;
59824;SDS011;45703;50.898;6.054;2022-12-18T05:57:44;16.98;;;7.90;;
59824;SDS011;45703;50.898;6.054;2022-12-18T06:00:10;16.55;;;7.32;;
59824;SDS011;45703;50.898;6.054;2022-12-18T06:02:36;15.20;;;7.55;;
59824;SDS011;45703;50.898;6.054;2022-12-18T06:05:01;17.17;;;7.88;;
59824;SDS011;45703;50.898;6.054;2022-12-18T06:07:27;14.13;;;6.63;;
59824;SDS011;45703;50.898;6.054;2022-12-18T06:09:52;17.13;;;6.20;;
59824;SDS011;45703;50.898;6.054;2022-12-18T06:12:17;16.88;;;7.18;;
59824;SDS011;45703;50.898;6.054;2022-12-18T06:14:43;16.77;;;7.88;;
59824;SDS011;45703;50.898;6.054;2022-12-18T06:17:08;15.43;;;7.38;;
59824;SDS011;45703;50.898;6.054;2022-12-18T06:19:34;19.85;;;8.52;;
59824;SDS011;45703;50.898;6.054;2022-12-18T06:21:59;15.02;;;7.80;;
59824;SDS011;45703;50.898;6.054;2022-12-18T06:24:24;15.90;;;7.38;;
59824;SDS011;45703;50.898;6.054;2022-12-18T06:26:50;20.77;;;8.25;;
59824;SDS011;45703;50.898;6.054;2022-12-18T06:29:15;13.48;;;6.53;;
59824;SDS011;45703;50.898;6.054;2022-12-18T06:31:40;13.75;;;7.00;;
59824;SDS011;45703;50.898;6.054;2022-12-18T06:34:06;17.40;;;6.93;;
59824;SDS011;45703;50.898;6.054;2022-12-18T06:36:31;12.93;;;6.55;;
59824;SDS011;45703;50.898;6.054;2022-12-18T06:38:57;20.88;;;8.05;;
59824;SDS011;45703;50.898;6.054;2022-12-18T06:41:23;24.08;;;9.02;;
59824;SDS011;45703;50.898;6.054;2022-12-18T06:43:48;16.63;;;8.02;;
59824;SDS011;45703;50.898;6.054;2022-12-18T06:46:14;18.80;;;9.43;;
59824;SDS011;45703;50.898;6.054;2022-12-18T06:48:40;19.25;;;7.72;;
59824;SDS011;45703;50.898;6.054;2022-12-18T06:51:05;18.00;;;7.50;;
59824;SDS011;45703;50.898;6.054;2022-12-18T06:53:31;23.02;;;8.43;;
59824;SDS011;45703;50.898;6.054;2022-12-18T06:56:01;16.40;;;7.32;;
59824;SDS011;45703;50.898;6.054;2022-12-18T06:58:31;17.02;;;7.40;;
59824;SDS011;45703;50.898;6.054;2022-12-18T07:01:00;15.93;;;6.65;;
59824;SDS011;45703;50.898;6.054;2022-12-18T07:03:26;18.42;;;7.75;;
59824;SDS011;45703;50.898;6.054;2022-12-18T07:05:52;15.75;;;7.55;;
59824;SDS011;45703;50.898;6.054;2022-12-18T07:08:17;13.70;;;7.70;;
59824;SDS011;45703;50.898;6.054;2022-12-18T07:10:43;12.63;;;6.25;;
59824;SDS011;45703;50.898;6.054;2022-12-18T07:13:09;17.23;;;7.15;;
59824;SDS011;45703;50.898;6.054;2022-12-18T07:15:34;16.80;;;6.95;;
59824;SDS011;45703;50.898;6.054;2022-12-18T07:18:00;14.02;;;7.43;;
59824;SDS011;45703;50.898;6.054;2022-12-18T07:20:25;18.00;;;7.75;;
59824;SDS011;45703;50.898;6.054;2022-12-18T07:22:51;20.08;;;8.27;;
59824;SDS011;45703;50.898;6.054;2022-12-18T07:25:16;15.45;;;7.45;;
59824;SDS011;45703;50.898;6.054;2022-12-18T07:27:42;17.70;;;7.82;;
59824;SDS011;45703;50.898;6.054;2022-12-18T07:30:07;19.00;;;7.70;;
59824;SDS011;45703;50.898;6.054;2022-12-18T07:32:33;17.83;;;7.90;;
59824;SDS011;45703;50.898;6.054;2022-12-18T07:34:59;19.88;;;7.85;;
59824;SDS011;45703;50.898;6.054;2022-12-18T07:37:24;18.60;;;8.55;;
59824;SDS011;45703;50.898;6.054;2022-12-18T07:39:50;18.75;;;9.80;;
59824;SDS011;45703;50.898;6.054;2022-12-18T07:42:15;14.75;;;6.90;;
59824;SDS011;45703;50.898;6.054;2022-12-18T07:44:56;19.00;;;9.02;;
59824;SDS011;45703;50.898;6.054;2022-12-18T07:47:21;17.13;;;8.15;;
59824;SDS011;45703;50.898;6.054;2022-12-18T07:49:47;18.75;;;8.43;;
59824;SDS011;45703;50.898;6.054;2022-12-18T07:52:12;16.92;;;7.53;;
59824;SDS011;45703;50.898;6.054;2022-12-18T07:54:37;20.65;;;9.93;;
59824;SDS011;45703;50.898;6.054;2022-12-18T07:57:03;19.63;;;10.02;;
59824;SDS011;45703;50.898;6.054;2022-12-18T07:59:29;17.05;;;8.07;;
59824;SDS011;45703;50.898;6.054;2022-12-18T08:01:54;18.85;;;8.55;;
59824;SDS011;45703;50.898;6.054;2022-12-18T08:04:19;17.90;;;8.40;;
59824;SDS011;45703;50.898;6.054;2022-12-18T08:06:45;20.23;;;8.68;;
59824;SDS011;45703;50.898;6.054;2022-12-18T08:09:11;17.75;;;7.25;;
59824;SDS011;45703;50.898;6.054;2022-12-18T08:11:36;21.38;;;8.68;;
59824;SDS011;45703;50.898;6.054;2022-12-18T08:14:02;23.58;;;10.80;;
59824;SDS011;45703;50.898;6.054;2022-12-18T08:16:27;19.67;;;9.25;;
59824;SDS011;45703;50.898;6.054;2022-12-18T08:18:53;18.27;;;9.27;;
59824;SDS011;45703;50.898;6.054;2022-12-18T08:21:20;16.23;;;7.53;;
59824;SDS011;45703;50.898;6.054;2022-12-18T08:23:48;19.35;;;9.23;;
59824;SDS011;45703;50.898;6.054;2022-12-18T08:26:14;19.33;;;9.13;;
59824;SDS011;45703;50.898;6.054;2022-12-18T08:28:40;19.75;;;9.77;;
59824;SDS011;45703;50.898;6.054;2022-12-18T08:31:06;17.80;;;8.48;;
59824;SDS011;45703;50.898;6.054;2022-12-18T08:33:32;21.15;;;9.57;;
59824;SDS011;45703;50.898;6.054;2022-12-18T08:35:59;21.95;;;11.10;;
59824;SDS011;45703;50.898;6.054;2022-12-18T08:38:25;21.75;;;9.25;;
59824;SDS011;45703;50.898;6.054;2022-12-18T08:43:26;21.00;;;10.15;;
59824;SDS011;45703;50.898;6.054;2022-12-18T08:46:10;22.60;;;11.20;;
59824;SDS011;45703;50.898;6.054;2022-12-18T08:48:35;23.92;;;10.85;;
59824;SDS011;45703;50.898;6.054;2022-12-18T08:51:01;23.23;;;10.32;;
59824;SDS011;45703;50.898;6.054;2022-12-18T08:53:26;23.88;;;10.25;;
59824;SDS011;45703;50.898;6.054;2022-12-18T08:55:52;25.00;;;10.82;;
59824;SDS011;45703;50.898;6.054;2022-12-18T08:58:18;23.27;;;10.00;;
59824;SDS011;45703;50.898;6.054;2022-12-18T09:00:43;25.52;;;12.07;;
59824;SDS011;45703;50.898;6.054;2022-12-18T09:03:12;21.75;;;10.30;;
59824;SDS011;45703;50.898;6.054;2022-12-18T09:05:39;23.35;;;11.23;;
59824;SDS011;45703;50.898;6.054;2022-12-18T09:08:05;24.60;;;11.38;;
59824;SDS011;45703;50.898;6.054;2022-12-18T09:10:30;25.92;;;11.05;;
59824;SDS011;45703;50.898;6.054;2022-12-18T09:12:56;26.48;;;11.35;;
59824;SDS011;45703;50.898;6.054;2022-12-18T09:15:21;25.00;;;12.00;;
59824;SDS011;45703;50.898;6.054;2022-12-18T09:17:47;21.05;;;11.20;;
59824;SDS011;45703;50.898;6.054;2022-12-18T09:20:13;24.20;;;11.48;;
59824;SDS011;45703;50.898;6.054;2022-12-18T09:22:38;24.85;;;11.90;;
59824;SDS011;45703;50.898;6.054;2022-12-18T09:25:04;24.73;;;11.73;;
59824;SDS011;45703;50.898;6.054;2022-12-18T09:27:32;25.98;;;12.18;;
59824;SDS011;45703;50.898;6.054;2022-12-18T09:29:57;24.95;;;13.02;;
59824;SDS011;45703;50.898;6.054;2022-12-18T09:32:23;23.80;;;11.25;;
59824;SDS011;45703;50.898;6.054;2022-12-18T09:34:48;23.63;;;11.75;;
59824;SDS011;45703;50.898;6.054;2022-12-18T09:37:14;27.85;;;13.00;;
59824;SDS011;45703;50.898;6.054;2022-12-18T09:39:39;26.25;;;12.73;;
59824;SDS011;45703;50.898;6.054;2022-12-18T09:42:04;25.35;;;11.50;;
59824;SDS011;45703;50.898;6.054;2022-12-18T09:49:53;23.55;;;12.13;;
59824;SDS011;45703;50.898;6.054;2022-12-18T09:52:26;20.55;;;9.82;;
59824;SDS011;45703;50.898;6.054;2022-12-18T09:55:02;21.85;;;11.45;;
59824;SDS011;45703;50.898;6.054;2022-12-18T09:57:37;22.98;;;12.00;;
59824;SDS011;45703;50.898;6.054;2022-12-18T10:00:17;24.42;;;11.75;;
59824;SDS011;45703;50.898;6.054;2022-12-18T10:02:46;26.45;;;12.10;;
59824;SDS011;45703;50.898;6.054;2022-12-18T10:17:14;22.40;;;12.55;;
59824;SDS011;45703;50.898;6.054;2022-12-18T10:19:50;21.63;;;11.73;;
59824;SDS011;45703;50.898;6.054;2022-12-18T10:25:50;27.75;;;13.98;;
59824;SDS011;45703;50.898;6.054;2022-12-18T10:27:54;28.38;;;13.43;;
59824;SDS011;45703;50.898;6.054;2022-12-18T10:30:23;25.48;;;13.93;;
59824;SDS011;45703;50.898;6.054;2022-12-18T10:32:50;25.15;;;12.38;;
59824;SDS011;45703;50.898;6.054;2022-12-18T10:35:20;23.75;;;13.50;;
59824;SDS011;45703;50.898;6.054;2022-12-18T10:40:25;25.02;;;12.73;;
59824;SDS011;45703;50.898;6.054;2022-12-18T10:45:37;25.67;;;12.07;;
59824;SDS011;45703;50.898;6.054;2022-12-18T10:48:02;23.00;;;12.52;;
59824;SDS011;45703;50.898;6.054;2022-12-18T10:50:33;23.25;;;13.18;;
59824;SDS011;45703;50.898;6.054;2022-12-18T10:55:27;24.35;;;13.13;;
59824;SDS011;45703;50.898;6.054;2022-12-18T10:58:18;25.25;;;12.55;;
59824;SDS011;45703;50.898;6.054;2022-12-18T11:03:33;25.50;;;13.05;;
59824;SDS011;45703;50.898;6.054;2022-12-18T11:06:11;25.40;;;13.38;;
59824;SDS011;45703;50.898;6.054;2022-12-18T11:08:39;28.05;;;13.95;;
59824;SDS011;45703;50.898;6.054;2022-12-18T11:11:07;23.88;;;13.45;;
59824;SDS011;45703;50.898;6.054;2022-12-18T11:13:48;23.80;;;13.27;;
59824;SDS011;45703;50.898;6.054;2022-12-18T11:16:30;25.63;;;13.82;;
59824;SDS011;45703;50.898;6.054;2022-12-18T11:22:17;26.75;;;14.68;;
59824;SDS011;45703;50.898;6.054;2022-12-18T11:24:51;25.75;;;13.45;;
59824;SDS011;45703;50.898;6.054;2022-12-18T11:27:20;26.45;;;13.25;;
59824;SDS011;45703;50.898;6.054;2022-12-18T11:29:46;26.80;;;13.10;;
59824;SDS011;45703;50.898;6.054;2022-12-18T11:34:46;26.77;;;13.55;;
59824;SDS011;45703;50.898;6.054;2022-12-18T11:37:16;27.00;;;13.20;;
59824;SDS011;45703;50.898;6.054;2022-12-18T11:39:53;22.98;;;13.52;;
59824;SDS011;45703;50.898;6.054;2022-12-18T11:47:41;26.67;;;13.95;;
59824;SDS011;45703;50.898;6.054;2022-12-18T11:53:14;25.25;;;14.43;;
59824;SDS011;45703;50.898;6.054;2022-12-18T12:01:18;27.10;;;14.48;;
59824;SDS011;45703;50.898;6.054;2022-12-18T12:07:02;27.08;;;15.13;;
59824;SDS011;45703;50.898;6.054;2022-12-18T12:10:10;27.35;;;14.88;;
59824;SDS011;45703;50.898;6.054;2022-12-18T12:18:21;28.35;;;15.07;;
59824;SDS011;45703;50.898;6.054;2022-12-18T12:34:49;29.45;;;14.52;;
59824;SDS011;45703;50.898;6.054;2022-12-18T12:40:29;27.15;;;15.40;;
59824;SDS011;45703;50.898;6.054;2022-12-18T12:43:02;27.77;;;14.77;;
59824;SDS011;45703;50.898;6.054;2022-12-18T12:51:18;29.25;;;16.40;;
59824;SDS011;45703;50.898;6.054;2022-12-18T12:53:46;25.70;;;14.43;;
59824;SDS011;45703;50.898;6.054;2022-12-18T12:56:13;25.25;;;14.32;;
59824;SDS011;45703;50.898;6.054;2022-12-18T12:58:45;28.13;;;15.25;;
59824;SDS011;45703;50.898;6.054;2022-12-18T13:01:16;30.10;;;14.52;;
59824;SDS011;45703;50.898;6.054;2022-12-18T13:09:24;26.48;;;15.82;;
59824;SDS011;45703;50.898;6.054;2022-12-18T13:11:49;28.42;;;15.63;;
59824;SDS011;45703;50.898;6.054;2022-12-18T13:14:37;26.63;;;14.80;;
59824;SDS011;45703;50.898;6.054;2022-12-18T13:20:10;29.30;;;15.55;;
59824;SDS011;45703;50.898;6.054;2022-12-18T13:22:38;27.95;;;14.77;;
59824;SDS011;45703;50.898;6.054;2022-12-18T13:28:14;34.25;;;15.25;;
59824;SDS011;45703;50.898;6.054;2022-12-18T13:30:51;28.33;;;14.82;;
59824;SDS011;45703;50.898;6.054;2022-12-18T13:38:23;27.30;;;14.52;;
59824;SDS011;45703;50.898;6.054;2022-12-18T13:41:00;25.35;;;13.70;;
59824;SDS011;45703;50.898;6.054;2022-12-18T13:43:28;26.27;;;14.75;;
59824;SDS011;45703;50.898;6.054;2022-12-18T13:48:29;28.00;;;15.45;;
59824;SDS011;45703;50.898;6.054;2022-12-18T13:51:17;29.27;;;14.85;;
59824;SDS011;45703;50.898;6.054;2022-12-18T13:56:42;24.15;;;13.35;;
59824;SDS011;45703;50.898;6.054;2022-12-18T14:04:30;28.33;;;15.73;;
59824;SDS011;45703;50.898;6.054;2022-12-18T14:07:05;28.83;;;15.52;;
59824;SDS011;45703;50.898;6.054;2022-12-18T14:09:39;26.85;;;14.95;;
59824;SDS011;45703;50.898;6.054;2022-12-18T14:17:55;24.65;;;13.90;;
59824;SDS011;45703;50.898;6.054;2022-12-18T14:20:39;26.48;;;14.25;;
59824;SDS011;45703;50.898;6.054;2022-12-18T14:23:24;24.65;;;14.05;;
59824;SDS011;45703;50.898;6.054;2022-12-18T14:25:52;27.23;;;15.43;;
59824;SDS011;45703;50.898;6.054;2022-12-18T14:28:17;28.13;;;16.50;;
59824;SDS011;45703;50.898;6.054;2022-12-18T14:30:43;29.85;;;14.95;;
59824;SDS011;45703;50.898;6.054;2022-12-18T14:33:11;27.20;;;15.38;;
59824;SDS011;45703;50.898;6.054;2022-12-18T14:35:40;27.65;;;16.33;;
59824;SDS011;45703;50.898;6.054;2022-12-18T14:38:27;26.90;;;15.60;;
59824;SDS011;45703;50.898;6.054;2022-12-18T14:40:54;28.85;;;15.52;;
59824;SDS011;45703;50.898;6.054;2022-12-18T14:43:34;28.63;;;15.35;;
59824;SDS011;45703;50.898;6.054;2022-12-18T14:46:01;28.45;;;15.40;;
59824;SDS011;45703;50.898;6.054;2022-12-18T14:48:41;29.27;;;16.27;;
59824;SDS011;45703;50.898;6.054;2022-12-18T14:53:57;27.88;;;15.77;;
59824;SDS011;45703;50.898;6.054;2022-12-18T14:56:29;31.25;;;15.88;;
59824;SDS011;45703;50.898;6.054;2022-12-18T14:59:01;30.85;;;15.85;;
59824;SDS011;45703;50.898;6.054;2022-12-18T15:01:39;30.50;;;16.02;;
59824;SDS011;45703;50.898;6.054;2022-12-18T15:07:07;29.98;;;15.30;;
59824;SDS011;45703;50.898;6.054;2022-12-18T15:09:40;28.45;;;15.45;;
59824;SDS011;45703;50.898;6.054;2022-12-18T15:12:19;29.95;;;14.27;;
59824;SDS011;45703;50.898;6.054;2022-12-18T15:14:50;27.40;;;15.98;;
59824;SDS011;45703;50.898;6.054;2022-12-18T15:19:46;27.00;;;14.73;;
59824;SDS011;45703;50.898;6.054;2022-12-18T15:22:24;32.08;;;16.50;;
59824;SDS011;45703;50.898;6.054;2022-12-18T15:24:50;29.15;;;15.43;;
59824;SDS011;45703;50.898;6.054;2022-12-18T15:27:20;28.30;;;14.95;;
59824;SDS011;45703;50.898;6.054;2022-12-18T15:30:11;30.35;;;14.25;;
59824;SDS011;45703;50.898;6.054;2022-12-18T15:32:45;31.73;;;16.58;;
59824;SDS011;45703;50.898;6.054;2022-12-18T15:35:16;28.95;;;16.45;;
59824;SDS011;45703;50.898;6.054;2022-12-18T15:37:46;46.53;;;24.83;;
59824;SDS011;45703;50.898;6.054;2022-12-18T15:40:14;35.20;;;18.17;;
59824;SDS011;45703;50.898;6.054;2022-12-18T15:42:41;31.83;;;16.33;;
59824;SDS011;45703;50.898;6.054;2022-12-18T15:45:25;32.08;;;17.00;;
59824;SDS011;45703;50.898;6.054;2022-12-18T15:47:51;31.80;;;18.35;;
59824;SDS011;45703;50.898;6.054;2022-12-18T15:50:16;34.85;;;17.65;;
59824;SDS011;45703;50.898;6.054;2022-12-18T15:52:43;30.48;;;16.63;;
59824;SDS011;45703;50.898;6.054;2022-12-18T15:55:14;29.95;;;15.68;;
59824;SDS011;45703;50.898;6.054;2022-12-18T15:58:06;34.85;;;16.77;;
59824;SDS011;45703;50.898;6.054;2022-12-18T16:00:33;27.58;;;15.10;;
59824;SDS011;45703;50.898;6.054;2022-12-18T16:03:01;34.00;;;17.73;;
59824;SDS011;45703;50.898;6.054;2022-12-18T16:05:27;31.50;;;15.65;;
59824;SDS011;45703;50.898;6.054;2022-12-18T16:07:53;27.52;;;15.25;;
59824;SDS011;45703;50.898;6.054;2022-12-18T16:10:18;31.23;;;15.88;;
59824;SDS011;45703;50.898;6.054;2022-12-18T16:12:45;33.45;;;17.08;;
59824;SDS011;45703;50.898;6.054;2022-12-18T16:15:12;33.47;;;17.40;;
59824;SDS011;45703;50.898;6.054;2022-12-18T16:17:39;31.20;;;16.08;;
59824;SDS011;45703;50.898;6.054;2022-12-18T16:20:06;30.63;;;16.77;;
59824;SDS011;45703;50.898;6.054;2022-12-18T16:22:43;30.50;;;15.82;;
59824;SDS011;45703;50.898;6.054;2022-12-18T16:25:17;34.80;;;17.15;;
59824;SDS011;45703;50.898;6.054;2022-12-18T16:27:46;30.90;;;15.32;;
59824;SDS011;45703;50.898;6.054;2022-12-18T16:30:15;32.33;;;17.35;;
59824;SDS011;45703;50.898;6.054;2022-12-18T16:32:42;33.25;;;16.15;;
59824;SDS011;45703;50.898;6.054;2022-12-18T16:35:09;36.75;;;17.13;;
59824;SDS011;45703;50.898;6.054;2022-12-18T16:37:38;29.48;;;15.40;;
59824;SDS011;45703;50.898;6.054;2022-12-18T16:40:05;34.75;;;17.38;;
59824;SDS011;45703;50.898;6.054;2022-12-18T16:42:34;32.80;;;16.20;;
59824;SDS011;45703;50.898;6.054;2022-12-18T16:45:00;31.40;;;15.50;;
59824;SDS011;45703;50.898;6.054;2022-12-18T16:47:25;27.70;;;14.90;;
59824;SDS011;45703;50.898;6.054;2022-12-18T16:49:50;29.67;;;15.88;;
59824;SDS011;45703;50.898;6.054;2022-12-18T16:52:17;33.65;;;17.20;;
59824;SDS011;45703;50.898;6.054;2022-12-18T16:54:43;38.05;;;18.98;;
59824;SDS011;45703;50.898;6.054;2022-12-18T16:57:09;40.33;;;20.65;;
59824;SDS011;45703;50.898;6.054;2022-12-18T16:59:37;34.05;;;17.88;;
59824;SDS011;45703;50.898;6.054;2022-12-18T17:02:03;38.53;;;18.40;;
59824;SDS011;45703;50.898;6.054;2022-12-18T17:04:28;37.30;;;19.55;;
59824;SDS011;45703;50.898;6.054;2022-12-18T17:06:53;33.25;;;17.88;;
59824;SDS011;45703;50.898;6.054;2022-12-18T17:09:19;31.88;;;17.65;;
59824;SDS011;45703;50.898;6.054;2022-12-18T17:11:52;34.47;;;17.65;;
59824;SDS011;45703;50.898;6.054;2022-12-18T17:14:20;30.02;;;16.63;;
59824;SDS011;45703;50.898;6.054;2022-12-18T17:16:46;35.63;;;18.45;;
59824;SDS011;45703;50.898;6.054;2022-12-18T17:19:12;31.98;;;18.42;;
59824;SDS011;45703;50.898;6.054;2022-12-18T17:21:40;35.75;;;18.98;;
59824;SDS011;45703;50.898;6.054;2022-12-18T17:24:05;34.90;;;17.98;;
59824;SDS011;45703;50.898;6.054;2022-12-18T17:26:31;31.30;;;17.63;;